sensor_id;sensor_type;location;lat;lon;timestamp;pressure;altitude;pressure_sealevel;temperature;humidity
55191;BME280;41070;50.360;18.742;2022-07-24T00:02:22;98895.65;;;20.93;78.51
55191;BME280;41070;50.360;18.742;2022-07-24T00:04:49;98894.09;;;20.92;78.73
55191;BME280;41070;50.360;18.742;2022-07-24T00:07:19;98896.29;;;20.90;78.53
55191;BME280;41070;50.360;18.742;2022-07-24T00:09:47;98896.70;;;20.88;78.85
55191;BME280;41070;50.360;18.742;2022-07-24T00:12:14;98905.57;;;20.87;78.88
55191;BME280;41070;50.360;18.742;2022-07-24T00:14:42;98907.31;;;20.91;79.02
55191;BME280;41070;50.360;18.742;2022-07-24T00:17:09;98906.75;;;20.94;79.32
55191;BME280;41070;50.360;18.742;2022-07-24T00:19:37;98905.89;;;20.95;79.23
55191;BME280;41070;50.360;18.742;2022-07-24T00:22:05;98906.02;;;20.97;79.26
55191;BME280;41070;50.360;18.742;2022-07-24T00:24:32;98908.04;;;20.96;79.33
55191;BME280;41070;50.360;18.742;2022-07-24T00:27:00;98906.52;;;20.94;79.11
55191;BME280;41070;50.360;18.742;2022-07-24T00:29:28;98903.03;;;20.92;79.34
55191;BME280;41070;50.360;18.742;2022-07-24T00:31:56;98904.10;;;20.93;79.23
55191;BME280;41070;50.360;18.742;2022-07-24T00:34:23;98901.85;;;20.93;79.35
55191;BME280;41070;50.360;18.742;2022-07-24T00:36:51;98908.66;;;20.89;79.20
55191;BME280;41070;50.360;18.742;2022-07-24T00:39:18;98911.08;;;20.88;79.38
55191;BME280;41070;50.360;18.742;2022-07-24T00:41:46;98907.31;;;20.91;79.82
55191;BME280;41070;50.360;18.742;2022-07-24T00:44:15;98904.59;;;20.91;79.77
55191;BME280;41070;50.360;18.742;2022-07-24T00:46:44;98907.38;;;20.92;79.52
55191;BME280;41070;50.360;18.742;2022-07-24T00:49:15;98906.59;;;20.87;79.41
55191;BME280;41070;50.360;18.742;2022-07-24T00:51:44;98907.75;;;20.87;79.55
55191;BME280;41070;50.360;18.742;2022-07-24T00:54:14;98907.38;;;20.85;79.41
55191;BME280;41070;50.360;18.742;2022-07-24T00:56:44;98910.10;;;20.84;79.47
55191;BME280;41070;50.360;18.742;2022-07-24T00:59:12;98908.02;;;20.83;79.52
55191;BME280;41070;50.360;18.742;2022-07-24T01:01:40;98914.23;;;20.83;79.42
55191;BME280;41070;50.360;18.742;2022-07-24T01:04:08;98911.38;;;20.82;79.75
55191;BME280;41070;50.360;18.742;2022-07-24T01:06:36;98912.06;;;20.82;79.59
55191;BME280;41070;50.360;18.742;2022-07-24T01:09:04;98912.95;;;20.79;79.39
55191;BME280;41070;50.360;18.742;2022-07-24T01:11:31;98913.30;;;20.76;79.57
55191;BME280;41070;50.360;18.742;2022-07-24T01:13:59;98914.03;;;20.71;79.42
55191;BME280;41070;50.360;18.742;2022-07-24T01:16:27;98915.33;;;20.66;79.50
55191;BME280;41070;50.360;18.742;2022-07-24T01:18:54;98915.05;;;20.59;79.24
55191;BME280;41070;50.360;18.742;2022-07-24T01:21:22;98915.19;;;20.51;79.02
55191;BME280;41070;50.360;18.742;2022-07-24T01:23:51;98913.63;;;20.42;79.20
55191;BME280;41070;50.360;18.742;2022-07-24T01:26:19;98912.86;;;20.32;78.78
55191;BME280;41070;50.360;18.742;2022-07-24T01:28:46;98914.08;;;20.24;78.82
55191;BME280;41070;50.360;18.742;2022-07-24T01:31:14;98914.81;;;20.19;78.75
55191;BME280;41070;50.360;18.742;2022-07-24T01:33:41;98906.54;;;20.15;78.81
55191;BME280;41070;50.360;18.742;2022-07-24T01:36:09;98908.34;;;20.11;78.55
55191;BME280;41070;50.360;18.742;2022-07-24T01:38:36;98912.49;;;20.05;78.47
55191;BME280;41070;50.360;18.742;2022-07-24T01:41:04;98912.59;;;20.01;78.46
55191;BME280;41070;50.360;18.742;2022-07-24T01:43:32;98911.05;;;20.00;78.47
55191;BME280;41070;50.360;18.742;2022-07-24T01:45:59;98911.23;;;19.97;78.18
55191;BME280;41070;50.360;18.742;2022-07-24T01:48:27;98913.48;;;19.95;78.27
55191;BME280;41070;50.360;18.742;2022-07-24T01:50:54;98918.07;;;19.93;78.27
55191;BME280;41070;50.360;18.742;2022-07-24T01:53:22;98915.08;;;19.90;78.01
55191;BME280;41070;50.360;18.742;2022-07-24T01:55:51;98920.73;;;19.87;77.90
55191;BME280;41070;50.360;18.742;2022-07-24T01:58:19;98920.69;;;19.84;77.99
55191;BME280;41070;50.360;18.742;2022-07-24T02:00:47;98924.42;;;19.83;77.99
55191;BME280;41070;50.360;18.742;2022-07-24T02:03:15;98921.55;;;19.83;78.27
55191;BME280;41070;50.360;18.742;2022-07-24T02:05:42;98921.33;;;19.81;77.97
55191;BME280;41070;50.360;18.742;2022-07-24T02:08:10;98922.77;;;19.74;78.05
55191;BME280;41070;50.360;18.742;2022-07-24T02:10:38;98924.77;;;19.69;77.81
55191;BME280;41070;50.360;18.742;2022-07-24T02:13:06;98920.30;;;19.64;77.90
55191;BME280;41070;50.360;18.742;2022-07-24T02:15:33;98917.67;;;19.64;77.89
55191;BME280;41070;50.360;18.742;2022-07-24T02:18:02;98919.38;;;19.60;77.86
55191;BME280;41070;50.360;18.742;2022-07-24T02:20:30;98916.90;;;19.60;78.10
55191;BME280;41070;50.360;18.742;2022-07-24T02:22:57;98920.75;;;19.64;78.13
55191;BME280;41070;50.360;18.742;2022-07-24T02:25:25;98918.65;;;19.67;78.24
55191;BME280;41070;50.360;18.742;2022-07-24T02:27:53;98929.19;;;19.69;78.25
55191;BME280;41070;50.360;18.742;2022-07-24T02:30:22;98929.51;;;19.72;78.24
55191;BME280;41070;50.360;18.742;2022-07-24T02:32:50;98926.88;;;19.67;77.68
55191;BME280;41070;50.360;18.742;2022-07-24T02:35:18;98933.70;;;19.67;77.93
55191;BME280;41070;50.360;18.742;2022-07-24T02:37:46;98933.62;;;19.66;77.57
55191;BME280;41070;50.360;18.742;2022-07-24T02:40:14;98930.24;;;19.60;77.57
55191;BME280;41070;50.360;18.742;2022-07-24T02:42:43;98929.33;;;19.56;77.53
55191;BME280;41070;50.360;18.742;2022-07-24T02:45:10;98929.20;;;19.46;77.51
55191;BME280;41070;50.360;18.742;2022-07-24T02:47:48;98925.50;;;19.40;77.58
55191;BME280;41070;50.360;18.742;2022-07-24T02:50:16;98925.36;;;19.38;77.50
55191;BME280;41070;50.360;18.742;2022-07-24T02:52:44;98927.56;;;19.29;77.59
55191;BME280;41070;50.360;18.742;2022-07-24T02:55:12;98928.09;;;19.30;77.58
55191;BME280;41070;50.360;18.742;2022-07-24T02:57:40;98929.55;;;19.31;77.83
55191;BME280;41070;50.360;18.742;2022-07-24T03:00:14;98935.85;;;19.31;78.03
55191;BME280;41070;50.360;18.742;2022-07-24T03:02:43;98937.16;;;19.35;78.01
55191;BME280;41070;50.360;18.742;2022-07-24T03:05:11;98938.08;;;19.40;78.06
55191;BME280;41070;50.360;18.742;2022-07-24T03:07:39;98936.05;;;19.41;78.29
55191;BME280;41070;50.360;18.742;2022-07-24T03:10:09;98935.96;;;19.43;78.27
55191;BME280;41070;50.360;18.742;2022-07-24T03:12:37;98935.42;;;19.44;78.44
55191;BME280;41070;50.360;18.742;2022-07-24T03:15:06;98940.47;;;19.43;78.41
55191;BME280;41070;50.360;18.742;2022-07-24T03:17:34;98944.73;;;19.41;78.09
55191;BME280;41070;50.360;18.742;2022-07-24T03:20:02;98943.50;;;19.40;78.25
55191;BME280;41070;50.360;18.742;2022-07-24T03:22:30;98947.54;;;19.38;78.17
55191;BME280;41070;50.360;18.742;2022-07-24T03:25:00;98948.23;;;19.35;78.22
55191;BME280;41070;50.360;18.742;2022-07-24T03:27:30;98948.86;;;19.34;78.24
55191;BME280;41070;50.360;18.742;2022-07-24T03:29:58;98953.29;;;19.31;78.22
55191;BME280;41070;50.360;18.742;2022-07-24T03:32:25;98956.55;;;19.29;78.37
55191;BME280;41070;50.360;18.742;2022-07-24T03:34:53;98956.86;;;19.28;78.59
55191;BME280;41070;50.360;18.742;2022-07-24T03:37:20;98962.83;;;19.28;78.73
55191;BME280;41070;50.360;18.742;2022-07-24T03:39:48;98956.84;;;19.34;78.60
55191;BME280;41070;50.360;18.742;2022-07-24T03:42:16;98957.77;;;19.36;78.42
55191;BME280;41070;50.360;18.742;2022-07-24T03:44:44;98959.30;;;19.38;78.50
55191;BME280;41070;50.360;18.742;2022-07-24T03:47:11;98963.05;;;19.36;78.41
55191;BME280;41070;50.360;18.742;2022-07-24T03:49:39;98960.92;;;19.40;78.23
55191;BME280;41070;50.360;18.742;2022-07-24T03:52:07;98965.42;;;19.41;78.23
55191;BME280;41070;50.360;18.742;2022-07-24T03:54:35;98966.98;;;19.43;78.23
55191;BME280;41070;50.360;18.742;2022-07-24T03:57:02;98970.30;;;19.44;78.11
55191;BME280;41070;50.360;18.742;2022-07-24T03:59:30;98973.94;;;19.48;77.83
55191;BME280;41070;50.360;18.742;2022-07-24T04:01:58;98972.70;;;19.49;77.66
55191;BME280;41070;50.360;18.742;2022-07-24T04:04:26;98969.83;;;19.46;77.63
55191;BME280;41070;50.360;18.742;2022-07-24T04:06:53;98974.71;;;19.46;77.70
55191;BME280;41070;50.360;18.742;2022-07-24T04:09:21;98978.20;;;19.48;77.74
55191;BME280;41070;50.360;18.742;2022-07-24T04:11:49;98979.51;;;19.51;77.90
55191;BME280;41070;50.360;18.742;2022-07-24T04:14:16;98982.15;;;19.52;77.91
55191;BME280;41070;50.360;18.742;2022-07-24T04:16:44;98986.48;;;19.52;77.62
55191;BME280;41070;50.360;18.742;2022-07-24T04:19:13;98984.86;;;19.52;77.53
55191;BME280;41070;50.360;18.742;2022-07-24T04:21:41;98987.20;;;19.44;76.98
55191;BME280;41070;50.360;18.742;2022-07-24T04:24:08;98987.46;;;19.32;76.94
55191;BME280;41070;50.360;18.742;2022-07-24T04:26:36;98987.63;;;19.24;77.02
55191;BME280;41070;50.360;18.742;2022-07-24T04:29:04;98993.14;;;19.18;76.96
55191;BME280;41070;50.360;18.742;2022-07-24T04:31:32;98994.02;;;19.14;77.12
55191;BME280;41070;50.360;18.742;2022-07-24T04:34:02;98995.02;;;19.15;77.31
55191;BME280;41070;50.360;18.742;2022-07-24T04:36:30;99003.08;;;19.15;77.17
55191;BME280;41070;50.360;18.742;2022-07-24T04:39:09;99004.00;;;19.12;77.20
55191;BME280;41070;50.360;18.742;2022-07-24T04:41:46;99009.89;;;19.16;77.40
55191;BME280;41070;50.360;18.742;2022-07-24T04:44:14;99014.84;;;19.18;77.25
55191;BME280;41070;50.360;18.742;2022-07-24T04:46:46;99013.21;;;19.20;77.18
55191;BME280;41070;50.360;18.742;2022-07-24T04:49:13;99013.14;;;19.25;77.53
55191;BME280;41070;50.360;18.742;2022-07-24T04:51:41;99012.42;;;19.27;77.40
55191;BME280;41070;50.360;18.742;2022-07-24T04:54:09;99014.99;;;19.25;77.23
55191;BME280;41070;50.360;18.742;2022-07-24T04:56:36;99019.48;;;19.23;77.14
55191;BME280;41070;50.360;18.742;2022-07-24T04:59:04;99023.29;;;19.24;77.17
55191;BME280;41070;50.360;18.742;2022-07-24T05:01:32;99025.92;;;19.22;77.06
55191;BME280;41070;50.360;18.742;2022-07-24T05:03:59;99025.07;;;19.22;77.10
55191;BME280;41070;50.360;18.742;2022-07-24T05:06:27;99028.41;;;19.19;77.19
55191;BME280;41070;50.360;18.742;2022-07-24T05:08:55;99027.86;;;19.21;77.20
55191;BME280;41070;50.360;18.742;2022-07-24T05:11:22;99026.08;;;19.18;77.21
55191;BME280;41070;50.360;18.742;2022-07-24T05:13:50;99034.60;;;19.20;77.43
55191;BME280;41070;50.360;18.742;2022-07-24T05:16:18;99033.13;;;19.22;77.61
55191;BME280;41070;50.360;18.742;2022-07-24T05:18:46;99032.59;;;19.26;77.67
55191;BME280;41070;50.360;18.742;2022-07-24T05:21:14;99027.55;;;19.27;77.49
55191;BME280;41070;50.360;18.742;2022-07-24T05:23:42;99034.67;;;19.27;77.34
55191;BME280;41070;50.360;18.742;2022-07-24T05:26:10;99040.33;;;19.28;77.58
55191;BME280;41070;50.360;18.742;2022-07-24T05:28:38;99042.73;;;19.37;77.67
55191;BME280;41070;50.360;18.742;2022-07-24T05:31:06;99038.52;;;19.43;77.62
55191;BME280;41070;50.360;18.742;2022-07-24T05:33:35;99039.98;;;19.49;77.58
55191;BME280;41070;50.360;18.742;2022-07-24T05:36:04;99040.29;;;19.54;77.48
55191;BME280;41070;50.360;18.742;2022-07-24T05:38:32;99040.35;;;19.62;77.51
55191;BME280;41070;50.360;18.742;2022-07-24T05:41:01;99045.92;;;19.71;77.21
55191;BME280;41070;50.360;18.742;2022-07-24T05:43:28;99042.58;;;19.77;76.75
55191;BME280;41070;50.360;18.742;2022-07-24T05:45:56;99039.70;;;19.78;76.57
55191;BME280;41070;50.360;18.742;2022-07-24T05:48:25;99037.77;;;19.78;76.12
55191;BME280;41070;50.360;18.742;2022-07-24T05:50:53;99043.88;;;19.79;76.14
55191;BME280;41070;50.360;18.742;2022-07-24T05:53:21;99045.50;;;19.84;76.13
55191;BME280;41070;50.360;18.742;2022-07-24T05:55:50;99043.45;;;19.94;76.05
55191;BME280;41070;50.360;18.742;2022-07-24T05:58:18;99044.43;;;20.00;76.11
55191;BME280;41070;50.360;18.742;2022-07-24T06:00:54;99043.45;;;20.11;75.77
55191;BME280;41070;50.360;18.742;2022-07-24T06:03:22;99043.06;;;20.11;74.80
55191;BME280;41070;50.360;18.742;2022-07-24T06:05:51;99036.69;;;20.12;74.74
55191;BME280;41070;50.360;18.742;2022-07-24T06:08:39;99040.61;;;20.20;74.81
55191;BME280;41070;50.360;18.742;2022-07-24T06:11:07;99039.72;;;20.29;74.88
55191;BME280;41070;50.360;18.742;2022-07-24T06:13:34;99046.39;;;20.40;74.56
55191;BME280;41070;50.360;18.742;2022-07-24T06:16:02;99043.41;;;20.48;74.01
55191;BME280;41070;50.360;18.742;2022-07-24T06:18:35;99046.48;;;20.54;73.79
55191;BME280;41070;50.360;18.742;2022-07-24T06:21:19;99044.90;;;20.57;73.09
55191;BME280;41070;50.360;18.742;2022-07-24T06:23:49;99043.27;;;20.61;72.92
55191;BME280;41070;50.360;18.742;2022-07-24T06:33:20;99049.20;;;20.89;72.51
55191;BME280;41070;50.360;18.742;2022-07-24T06:35:47;99054.30;;;21.03;72.29
55191;BME280;41070;50.360;18.742;2022-07-24T06:38:15;99054.73;;;21.16;71.87
55191;BME280;41070;50.360;18.742;2022-07-24T06:40:43;99053.19;;;21.33;71.69
55191;BME280;41070;50.360;18.742;2022-07-24T06:43:10;99053.24;;;21.45;70.86
55191;BME280;41070;50.360;18.742;2022-07-24T06:45:38;99049.64;;;21.48;70.34
55191;BME280;41070;50.360;18.742;2022-07-24T06:48:06;99056.77;;;21.51;69.51
55191;BME280;41070;50.360;18.742;2022-07-24T06:50:34;99050.48;;;21.57;69.15
55191;BME280;41070;50.360;18.742;2022-07-24T06:53:02;99049.66;;;21.69;69.26
55191;BME280;41070;50.360;18.742;2022-07-24T06:55:29;99055.40;;;21.77;68.71
55191;BME280;41070;50.360;18.742;2022-07-24T06:57:56;99052.88;;;21.86;68.31
55191;BME280;41070;50.360;18.742;2022-07-24T07:00:24;99050.39;;;21.94;68.42
55191;BME280;41070;50.360;18.742;2022-07-24T07:02:52;99053.86;;;22.01;66.87
55191;BME280;41070;50.360;18.742;2022-07-24T07:05:19;99054.98;;;22.13;67.44
55191;BME280;41070;50.360;18.742;2022-07-24T07:07:47;99055.41;;;22.22;66.58
55191;BME280;41070;50.360;18.742;2022-07-24T07:10:14;99058.69;;;22.29;66.03
55191;BME280;41070;50.360;18.742;2022-07-24T07:12:42;99056.89;;;22.29;65.54
55191;BME280;41070;50.360;18.742;2022-07-24T07:15:10;99059.08;;;22.35;64.93
55191;BME280;41070;50.360;18.742;2022-07-24T07:17:41;99054.77;;;22.48;64.78
55191;BME280;41070;50.360;18.742;2022-07-24T07:20:11;99051.13;;;22.63;64.69
55191;BME280;41070;50.360;18.742;2022-07-24T07:22:40;99052.64;;;22.75;64.46
55191;BME280;41070;50.360;18.742;2022-07-24T07:25:09;99054.55;;;22.84;63.78
55191;BME280;41070;50.360;18.742;2022-07-24T07:27:37;99051.89;;;22.85;63.45
55191;BME280;41070;50.360;18.742;2022-07-24T07:30:06;99055.45;;;22.92;62.91
55191;BME280;41070;50.360;18.742;2022-07-24T07:32:33;99055.63;;;23.00;62.69
55191;BME280;41070;50.360;18.742;2022-07-24T07:35:01;99056.60;;;23.03;62.45
55191;BME280;41070;50.360;18.742;2022-07-24T07:37:28;99060.39;;;23.15;62.66
55191;BME280;41070;50.360;18.742;2022-07-24T07:39:56;99055.66;;;23.31;62.27
55191;BME280;41070;50.360;18.742;2022-07-24T07:42:25;99059.84;;;23.51;61.96
55191;BME280;41070;50.360;18.742;2022-07-24T07:44:52;99055.96;;;23.61;61.47
55191;BME280;41070;50.360;18.742;2022-07-24T07:47:20;99060.48;;;23.63;60.91
55191;BME280;41070;50.360;18.742;2022-07-24T07:49:48;99058.73;;;23.56;61.07
55191;BME280;41070;50.360;18.742;2022-07-24T07:52:15;99059.73;;;23.53;60.66
55191;BME280;41070;50.360;18.742;2022-07-24T07:54:43;99060.45;;;23.47;59.24
55191;BME280;41070;50.360;18.742;2022-07-24T07:57:11;99062.80;;;23.43;58.80
55191;BME280;41070;50.360;18.742;2022-07-24T07:59:38;99059.20;;;23.48;58.98
55191;BME280;41070;50.360;18.742;2022-07-24T08:02:06;99056.53;;;23.61;58.63
55191;BME280;41070;50.360;18.742;2022-07-24T08:04:33;99059.05;;;23.72;57.41
55191;BME280;41070;50.360;18.742;2022-07-24T08:07:01;99054.14;;;23.72;57.19
55191;BME280;41070;50.360;18.742;2022-07-24T08:09:28;99054.74;;;23.73;56.82
55191;BME280;41070;50.360;18.742;2022-07-24T08:11:56;99058.21;;;23.80;57.56
55191;BME280;41070;50.360;18.742;2022-07-24T08:14:23;99060.80;;;23.92;56.63
55191;BME280;41070;50.360;18.742;2022-07-24T08:16:51;99063.96;;;23.86;56.30
55191;BME280;41070;50.360;18.742;2022-07-24T08:19:18;99063.30;;;23.80;56.31
55191;BME280;41070;50.360;18.742;2022-07-24T08:21:46;99063.50;;;23.82;55.64
55191;BME280;41070;50.360;18.742;2022-07-24T08:24:13;99061.73;;;23.71;55.32
55191;BME280;41070;50.360;18.742;2022-07-24T08:26:47;99061.52;;;23.65;55.32
55191;BME280;41070;50.360;18.742;2022-07-24T08:29:17;99068.40;;;23.48;54.92
55191;BME280;41070;50.360;18.742;2022-07-24T08:31:44;99068.20;;;23.50;54.12
55191;BME280;41070;50.360;18.742;2022-07-24T08:34:13;99069.63;;;23.49;53.50
55191;BME280;41070;50.360;18.742;2022-07-24T08:36:41;99070.74;;;23.56;53.13
55191;BME280;41070;50.360;18.742;2022-07-24T08:39:12;99072.27;;;23.67;52.54
55191;BME280;41070;50.360;18.742;2022-07-24T08:41:43;99073.70;;;23.74;51.74
55191;BME280;41070;50.360;18.742;2022-07-24T08:44:12;99076.41;;;23.79;51.89
55191;BME280;41070;50.360;18.742;2022-07-24T08:47:00;99073.73;;;23.94;52.46
55191;BME280;41070;50.360;18.742;2022-07-24T08:49:30;99072.01;;;24.09;51.92
55191;BME280;41070;50.360;18.742;2022-07-24T08:52:38;99068.45;;;24.22;50.28
55191;BME280;41070;50.360;18.742;2022-07-24T08:55:42;99074.99;;;24.27;51.12
55191;BME280;41070;50.360;18.742;2022-07-24T08:58:30;99078.12;;;24.19;51.20
55191;BME280;41070;50.360;18.742;2022-07-24T09:00:58;99080.97;;;24.02;50.10
55191;BME280;41070;50.360;18.742;2022-07-24T09:03:26;99082.20;;;23.95;50.09
55191;BME280;41070;50.360;18.742;2022-07-24T09:05:57;99077.63;;;24.06;49.93
55191;BME280;41070;50.360;18.742;2022-07-24T09:08:25;99078.39;;;24.18;48.28
55191;BME280;41070;50.360;18.742;2022-07-24T09:11:01;99077.83;;;24.23;46.32
55191;BME280;41070;50.360;18.742;2022-07-24T09:13:32;99073.41;;;24.25;46.33
55191;BME280;41070;50.360;18.742;2022-07-24T09:16:21;99079.86;;;24.30;45.83
55191;BME280;41070;50.360;18.742;2022-07-24T09:19:04;99084.98;;;24.39;46.12
55191;BME280;41070;50.360;18.742;2022-07-24T09:21:36;99076.09;;;24.45;46.73
55191;BME280;41070;50.360;18.742;2022-07-24T09:24:21;99082.79;;;24.61;47.14
55191;BME280;41070;50.360;18.742;2022-07-24T09:26:57;99085.00;;;24.57;46.22
55191;BME280;41070;50.360;18.742;2022-07-24T09:29:26;99081.52;;;24.37;45.98
55191;BME280;41070;50.360;18.742;2022-07-24T09:31:58;99080.60;;;24.20;46.41
55191;BME280;41070;50.360;18.742;2022-07-24T09:34:29;99083.58;;;24.31;45.77
55191;BME280;41070;50.360;18.742;2022-07-24T09:37:03;99080.44;;;24.47;44.96
55191;BME280;41070;50.360;18.742;2022-07-24T09:39:33;99089.56;;;24.59;45.61
55191;BME280;41070;50.360;18.742;2022-07-24T09:42:03;99090.82;;;24.73;45.54
55191;BME280;41070;50.360;18.742;2022-07-24T09:44:32;99089.11;;;24.79;44.93
55191;BME280;41070;50.360;18.742;2022-07-24T09:47:03;99088.98;;;24.77;44.66
55191;BME280;41070;50.360;18.742;2022-07-24T09:49:32;99088.41;;;24.58;44.52
55191;BME280;41070;50.360;18.742;2022-07-24T09:52:14;99092.61;;;24.40;45.04
55191;BME280;41070;50.360;18.742;2022-07-24T09:54:45;99090.19;;;24.47;45.01
55191;BME280;41070;50.360;18.742;2022-07-24T09:57:21;99086.84;;;24.62;45.10
55191;BME280;41070;50.360;18.742;2022-07-24T09:59:57;99078.61;;;24.83;45.12
55191;BME280;41070;50.360;18.742;2022-07-24T10:02:27;99084.04;;;25.02;43.80
55191;BME280;41070;50.360;18.742;2022-07-24T10:04:57;99078.52;;;24.90;43.56
55191;BME280;41070;50.360;18.742;2022-07-24T10:07:25;99079.77;;;24.90;43.60
55191;BME280;41070;50.360;18.742;2022-07-24T10:09:56;99075.45;;;24.98;43.80
55191;BME280;41070;50.360;18.742;2022-07-24T10:12:26;99081.86;;;24.99;43.33
55191;BME280;41070;50.360;18.742;2022-07-24T10:14:56;99079.13;;;24.81;43.87
55191;BME280;41070;50.360;18.742;2022-07-24T10:17:35;99078.08;;;24.76;43.37
55191;BME280;41070;50.360;18.742;2022-07-24T10:20:10;99077.27;;;24.94;43.37
55191;BME280;41070;50.360;18.742;2022-07-24T10:23:03;99081.59;;;25.12;42.85
55191;BME280;41070;50.360;18.742;2022-07-24T10:26:04;99076.34;;;25.33;43.37
55191;BME280;41070;50.360;18.742;2022-07-24T10:28:42;99081.36;;;25.50;42.60
55191;BME280;41070;50.360;18.742;2022-07-24T10:31:13;99077.40;;;25.55;42.96
55191;BME280;41070;50.360;18.742;2022-07-24T10:33:46;99075.47;;;25.54;43.01
55191;BME280;41070;50.360;18.742;2022-07-24T10:36:41;99073.32;;;25.32;42.22
55191;BME280;41070;50.360;18.742;2022-07-24T10:58:12;99068.38;;;25.91;40.43
55191;BME280;41070;50.360;18.742;2022-07-24T11:03:51;99064.64;;;25.90;38.56
55191;BME280;41070;50.360;18.742;2022-07-24T11:06:54;99061.73;;;25.85;38.66
55191;BME280;41070;50.360;18.742;2022-07-24T11:09:53;99065.06;;;25.88;39.21
55191;BME280;41070;50.360;18.742;2022-07-24T11:12:30;99065.02;;;25.93;39.63
55191;BME280;41070;50.360;18.742;2022-07-24T11:15:02;99064.55;;;26.02;39.41
55191;BME280;41070;50.360;18.742;2022-07-24T11:17:47;99064.31;;;26.07;39.38
55191;BME280;41070;50.360;18.742;2022-07-24T11:20:21;99056.88;;;26.16;39.44
55191;BME280;41070;50.360;18.742;2022-07-24T11:22:51;99059.49;;;26.28;38.74
55191;BME280;41070;50.360;18.742;2022-07-24T11:25:24;99060.38;;;26.25;37.41
55191;BME280;41070;50.360;18.742;2022-07-24T11:30:26;99051.75;;;26.14;37.72
55191;BME280;41070;50.360;18.742;2022-07-24T11:32:54;99057.71;;;26.16;38.68
55191;BME280;41070;50.360;18.742;2022-07-24T11:35:48;99055.41;;;26.20;38.63
55191;BME280;41070;50.360;18.742;2022-07-24T11:38:16;99052.21;;;26.15;38.13
55191;BME280;41070;50.360;18.742;2022-07-24T11:40:44;99051.91;;;26.08;38.41
55191;BME280;41070;50.360;18.742;2022-07-24T11:43:11;99057.40;;;26.16;39.19
55191;BME280;41070;50.360;18.742;2022-07-24T11:45:39;99060.40;;;26.19;38.61
55191;BME280;41070;50.360;18.742;2022-07-24T11:48:18;99060.52;;;26.20;38.99
55191;BME280;41070;50.360;18.742;2022-07-24T11:50:46;99059.63;;;26.18;38.74
55191;BME280;41070;50.360;18.742;2022-07-24T11:53:13;99058.45;;;26.15;38.23
55191;BME280;41070;50.360;18.742;2022-07-24T11:55:41;99054.64;;;26.14;38.31
55191;BME280;41070;50.360;18.742;2022-07-24T11:58:12;99043.19;;;26.15;38.17
55191;BME280;41070;50.360;18.742;2022-07-24T12:00:45;99044.45;;;26.18;38.10
55191;BME280;41070;50.360;18.742;2022-07-24T12:03:12;99045.00;;;26.12;37.99
55191;BME280;41070;50.360;18.742;2022-07-24T12:05:43;99047.11;;;26.09;37.83
55191;BME280;41070;50.360;18.742;2022-07-24T12:08:29;99040.73;;;26.11;38.19
55191;BME280;41070;50.360;18.742;2022-07-24T12:10:57;99043.98;;;26.17;37.97
55191;BME280;41070;50.360;18.742;2022-07-24T12:13:27;99045.37;;;26.26;37.86
55191;BME280;41070;50.360;18.742;2022-07-24T12:15:56;99043.55;;;26.24;37.59
55191;BME280;41070;50.360;18.742;2022-07-24T12:18:23;99039.84;;;26.17;37.66
55191;BME280;41070;50.360;18.742;2022-07-24T12:20:58;99037.31;;;26.12;37.45
55191;BME280;41070;50.360;18.742;2022-07-24T12:23:27;99033.73;;;26.17;37.88
55191;BME280;41070;50.360;18.742;2022-07-24T12:25:55;99042.23;;;26.21;37.21
55191;BME280;41070;50.360;18.742;2022-07-24T12:28:23;99037.95;;;26.17;36.57
55191;BME280;41070;50.360;18.742;2022-07-24T12:30:52;99035.16;;;26.21;36.69
55191;BME280;41070;50.360;18.742;2022-07-24T12:33:22;99034.52;;;26.20;36.04
55191;BME280;41070;50.360;18.742;2022-07-24T12:36:11;99033.55;;;26.21;36.53
55191;BME280;41070;50.360;18.742;2022-07-24T12:38:41;99033.16;;;26.21;36.40
55191;BME280;41070;50.360;18.742;2022-07-24T12:41:14;99028.02;;;26.22;36.84
55191;BME280;41070;50.360;18.742;2022-07-24T12:43:52;99028.48;;;26.25;37.30
55191;BME280;41070;50.360;18.742;2022-07-24T12:46:34;99026.92;;;26.29;37.28
55191;BME280;41070;50.360;18.742;2022-07-24T12:49:06;99030.37;;;26.32;36.80
55191;BME280;41070;50.360;18.742;2022-07-24T12:52:00;99033.71;;;26.30;36.78
55191;BME280;41070;50.360;18.742;2022-07-24T12:54:31;99032.34;;;26.27;36.28
55191;BME280;41070;50.360;18.742;2022-07-24T12:57:01;99027.66;;;26.21;36.44
55191;BME280;41070;50.360;18.742;2022-07-24T12:59:34;99030.44;;;26.16;36.44
55191;BME280;41070;50.360;18.742;2022-07-24T13:02:16;99024.64;;;26.22;36.98
55191;BME280;41070;50.360;18.742;2022-07-24T13:04:52;99028.86;;;26.28;35.51
55191;BME280;41070;50.360;18.742;2022-07-24T13:07:21;99027.73;;;26.26;36.26
55191;BME280;41070;50.360;18.742;2022-07-24T13:09:49;99029.02;;;26.28;35.67
55191;BME280;41070;50.360;18.742;2022-07-24T13:12:18;99017.91;;;26.25;35.91
55191;BME280;41070;50.360;18.742;2022-07-24T13:14:47;99019.50;;;26.27;35.51
55191;BME280;41070;50.360;18.742;2022-07-24T13:17:17;99019.83;;;26.24;35.44
55191;BME280;41070;50.360;18.742;2022-07-24T13:19:48;99019.77;;;26.23;35.75
55191;BME280;41070;50.360;18.742;2022-07-24T13:22:16;99024.46;;;26.23;35.58
55191;BME280;41070;50.360;18.742;2022-07-24T13:24:44;99021.64;;;26.18;34.92
55191;BME280;41070;50.360;18.742;2022-07-24T13:27:12;99020.41;;;26.14;34.96
55191;BME280;41070;50.360;18.742;2022-07-24T13:29:41;99016.59;;;26.09;35.46
55191;BME280;41070;50.360;18.742;2022-07-24T13:32:09;99016.99;;;26.11;35.41
55191;BME280;41070;50.360;18.742;2022-07-24T13:34:37;99020.27;;;26.14;35.75
55191;BME280;41070;50.360;18.742;2022-07-24T13:37:05;99014.80;;;26.13;35.34
55191;BME280;41070;50.360;18.742;2022-07-24T13:39:32;99014.60;;;26.09;35.72